Terminal Aerodrome Forecast
Issued by NWS

Home | Current Version | Previous Version | Text Only | Print | Product List | Glossary On
Versions: 1 2 3 4 5 6 7 8 9 10 11 12 13 14 15 16 17
000
FTUS45 KSLC 211122
TAFSGU
TAF
KSGU 211122Z 2112/2212 VRB05KT P6SM VCSH SCT020 BKN050
     FM211800 25008KT P6SM VCSH SCT040 BKN080
     FM220200 VRB04KT P6SM SCT060 BKN150
      AMD LTD TO CLD VIS AND WIND=

USA.gov is the U.S. government's official web portal to all federal, state and local government web resources and services.